createdAt,value
2022-11-24T00:01:06.444Z,11.10
2022-11-24T00:06:11.189Z,11.20
2022-11-24T00:11:16.111Z,11.30
2022-11-24T00:16:23.912Z,11.40
2022-11-24T00:21:27.496Z,11.50
2022-11-24T00:26:32.286Z,11.40
2022-11-24T00:31:37.543Z,11.50
2022-11-24T00:36:40.406Z,11.50
2022-11-24T00:41:43.165Z,11.60
2022-11-24T00:46:45.123Z,11.70
2022-11-24T00:51:46.930Z,11.70
2022-11-24T00:56:48.755Z,11.70
2022-11-24T01:01:50.660Z,11.70
2022-11-24T01:06:52.480Z,11.70
2022-11-24T01:12:04.069Z,11.60
2022-11-24T01:17:05.919Z,11.60
2022-11-24T01:22:07.707Z,11.60
2022-11-24T01:27:09.920Z,11.60
2022-11-24T01:32:11.761Z,11.60
2022-11-24T01:37:13.596Z,11.50
2022-11-24T01:42:15.384Z,11.60
2022-11-24T01:47:20.187Z,11.50
2022-11-24T01:52:33.023Z,11.50
2022-11-24T01:57:45.827Z,11.40
2022-11-24T02:02:47.674Z,11.50
2022-11-24T02:07:51.810Z,11.50
2022-11-24T02:12:56.004Z,11.50
2022-11-24T02:17:59.266Z,11.50
2022-11-24T02:23:24.812Z,11.40
2022-11-24T02:28:30.613Z,11.40
2022-11-24T02:33:34.803Z,11.40
2022-11-24T02:38:36.717Z,11.30
2022-11-24T02:43:46.474Z,11.30
2022-11-24T02:48:48.311Z,11.20
2022-11-24T02:53:50.121Z,11.20
2022-11-24T02:58:51.932Z,11.20
2022-11-24T03:03:53.743Z,11.30
2022-11-24T03:08:55.535Z,11.30
2022-11-24T03:13:57.338Z,11.20
2022-11-24T03:18:59.136Z,11.10
2022-11-24T03:24:00.914Z,11.10
2022-11-24T03:29:02.768Z,11.00
2022-11-24T03:34:04.591Z,11.00
2022-11-24T03:39:07.119Z,11.00
2022-11-24T03:44:08.866Z,10.90
2022-11-24T03:49:10.659Z,10.90
2022-11-24T03:54:12.620Z,11.00
2022-11-24T03:59:14.428Z,11.00
2022-11-24T04:04:16.239Z,11.00
2022-11-24T04:09:18.096Z,11.00
2022-11-24T04:14:26.575Z,11.10
2022-11-24T04:19:28.393Z,11.00
2022-11-24T04:24:30.420Z,11.00
2022-11-24T04:29:32.274Z,11.10
2022-11-24T04:34:37.382Z,11.20
2022-11-24T04:39:40.026Z,11.20
2022-11-24T04:44:41.880Z,11.30
2022-11-24T04:49:43.674Z,11.20
2022-11-24T04:54:46.148Z,11.20
2022-11-24T04:59:49.215Z,11.20
2022-11-24T05:04:51.272Z,11.10
2022-11-24T05:10:11.609Z,11.10
2022-11-24T05:15:13.414Z,11.10
2022-11-24T05:20:15.459Z,11.10
2022-11-24T05:25:17.682Z,11.00
2022-11-24T05:30:19.646Z,11.00
2022-11-24T05:35:22.074Z,11.10
2022-11-24T05:40:24.007Z,11.10
2022-11-24T05:45:25.859Z,11.10
2022-11-24T05:50:27.646Z,11.10
2022-11-24T05:55:29.488Z,11.10
2022-11-24T06:00:32.883Z,11.10
2022-11-24T06:05:34.734Z,11.10
2022-11-24T06:10:36.523Z,11.10
2022-11-24T06:15:38.626Z,11.10
2022-11-24T06:20:40.496Z,11.20
2022-11-24T06:25:43.616Z,11.20
2022-11-24T06:30:48.252Z,11.20
2022-11-24T06:35:50.126Z,11.20
2022-11-24T06:41:06.313Z,11.20
2022-11-24T06:46:08.345Z,11.30
2022-11-24T06:51:15.080Z,11.40
2022-11-24T06:56:20.269Z,11.40
2022-11-24T07:01:24.707Z,11.50
2022-11-24T07:06:28.371Z,11.60
2022-11-24T07:11:30.208Z,11.70
2022-11-24T07:16:32.739Z,11.70
2022-11-24T07:21:34.659Z,11.80
2022-11-24T07:26:37.604Z,11.90
2022-11-24T07:31:39.689Z,11.90
2022-11-24T07:36:42.702Z,12.00
2022-11-24T07:41:44.541Z,12.00
2022-11-24T07:46:46.536Z,12.10
2022-11-24T07:51:48.386Z,12.10
2022-11-24T07:56:50.248Z,12.20
2022-11-24T08:01:52.252Z,12.20
2022-11-24T08:06:54.133Z,12.20
2022-11-24T08:11:56.026Z,12.20
2022-11-24T08:16:58.482Z,12.20
2022-11-24T08:22:00.716Z,12.10
2022-11-24T08:27:02.843Z,12.20
2022-11-24T08:32:05.091Z,12.10
2022-11-24T08:37:07.204Z,12.10
2022-11-24T08:42:09.189Z,12.10
2022-11-24T08:47:10.969Z,12.10
2022-11-24T08:52:12.964Z,12.00
2022-11-24T08:57:21.447Z,11.90
2022-11-24T09:02:23.711Z,11.80
2022-11-24T09:07:25.690Z,11.70
2022-11-24T09:12:28.267Z,11.60
2022-11-24T09:17:30.041Z,11.50
2022-11-24T09:22:32.036Z,11.40
2022-11-24T09:27:33.923Z,11.40
2022-11-24T09:32:35.896Z,11.60
2022-11-24T09:37:37.730Z,11.70
2022-11-24T09:42:58.313Z,11.80
2022-11-24T09:48:08.482Z,11.90
2022-11-24T09:53:31.198Z,12.00
2022-11-24T09:58:45.718Z,12.00
2022-11-24T10:03:52.031Z,12.30
2022-11-24T10:09:05.846Z,12.70
2022-11-24T10:14:57.775Z,13.10
2022-11-24T10:20:18.879Z,13.70
2022-11-24T10:25:24.068Z,13.80
2022-11-24T10:30:26.399Z,14.20
2022-11-24T10:35:40.500Z,14.60
2022-11-24T10:40:58.572Z,14.20
2022-11-24T10:46:15.001Z,13.80
2022-11-24T10:51:30.214Z,13.50
2022-11-24T10:56:42.899Z,13.30
2022-11-24T11:01:44.961Z,13.10
2022-11-24T11:06:51.684Z,13.20
2022-11-24T11:11:53.985Z,13.40
2022-11-24T11:16:57.974Z,13.50
2022-11-24T11:22:12.147Z,13.40
2022-11-24T11:27:19.817Z,13.50
2022-11-24T11:37:47.207Z,13.60
2022-11-24T11:43:02.496Z,13.50
2022-11-24T11:48:04.797Z,13.50
2022-11-24T11:53:17.894Z,13.50
2022-11-24T11:58:34.605Z,13.40
2022-11-24T12:03:45.648Z,13.40
2022-11-24T12:09:20.181Z,13.50
2022-11-24T12:14:50.221Z,13.60
2022-11-24T12:20:04.028Z,13.60
2022-11-24T12:25:14.778Z,13.90
2022-11-24T12:30:18.408Z,14.20
2022-11-24T12:35:46.617Z,14.40
2022-11-24T12:41:06.487Z,14.70
2022-11-24T12:46:34.634Z,15.00
2022-11-24T12:51:41.449Z,15.10
2022-11-24T12:56:49.226Z,15.20
2022-11-24T13:02:05.412Z,15.10
2022-11-24T13:07:17.422Z,15.30
2022-11-24T13:12:19.470Z,15.60
2022-11-24T13:17:36.377Z,15.50
2022-11-24T13:23:03.460Z,15.40
2022-11-24T13:28:06.792Z,15.30
2022-11-24T13:33:16.231Z,15.00
2022-11-24T13:38:40.754Z,15.00
2022-11-24T13:44:16.999Z,15.20
2022-11-24T13:49:20.855Z,15.20
2022-11-24T13:54:25.485Z,15.30
2022-11-24T13:59:34.507Z,15.50
2022-11-24T14:04:39.456Z,15.50
2022-11-24T14:09:45.541Z,15.30
2022-11-24T14:14:50.517Z,15.10
2022-11-24T14:19:54.437Z,15.10
2022-11-24T14:25:01.215Z,15.20
2022-11-24T14:30:17.946Z,15.40
2022-11-24T14:35:47.778Z,15.50
2022-11-24T14:40:52.757Z,15.70
2022-11-24T14:46:12.276Z,15.70
2022-11-24T14:51:23.027Z,15.70
2022-11-24T14:56:24.946Z,15.60
2022-11-24T15:01:26.863Z,15.60
2022-11-24T15:06:29.007Z,15.50
2022-11-24T15:11:32.552Z,15.50
2022-11-24T15:16:34.465Z,15.50
2022-11-24T15:21:37.369Z,15.40
2022-11-24T15:26:42.389Z,15.40
2022-11-24T15:31:50.860Z,15.40
2022-11-24T15:36:54.355Z,15.40
2022-11-24T15:41:56.286Z,15.40
2022-11-24T15:46:58.219Z,15.40
2022-11-24T15:52:00.224Z,15.50
2022-11-24T15:57:02.581Z,15.40
2022-11-24T16:02:04.731Z,15.30
2022-11-24T16:07:06.867Z,15.10
2022-11-24T16:12:09.462Z,14.80
2022-11-24T16:17:11.435Z,14.60
2022-11-24T16:22:13.338Z,14.50
2022-11-24T16:27:15.141Z,14.30
2022-11-24T16:32:16.968Z,14.10
2022-11-24T16:37:20.961Z,14.00
2022-11-24T16:42:22.970Z,14.00
2022-11-24T16:47:25.003Z,13.80
2022-11-24T16:52:26.921Z,13.40
2022-11-24T16:57:28.791Z,13.10
2022-11-24T17:02:30.857Z,13.10
2022-11-24T17:07:33.229Z,13.10
2022-11-24T17:12:36.459Z,13.00
2022-11-24T17:17:50.005Z,12.70
2022-11-24T17:23:00.198Z,12.50
2022-11-24T17:28:02.060Z,12.50
2022-11-24T17:33:04.125Z,12.30
2022-11-24T17:38:05.998Z,12.30
2022-11-24T17:43:09.479Z,12.20
2022-11-24T17:48:11.308Z,12.10
2022-11-24T17:53:13.149Z,11.90
2022-11-24T17:58:15.064Z,11.70
2022-11-24T18:03:16.929Z,11.50
2022-11-24T18:08:18.816Z,11.50
2022-11-24T18:13:48.406Z,11.40
2022-11-24T18:18:47.417Z,11.40
2022-11-24T18:23:52.126Z,11.40
2022-11-24T18:28:54.259Z,11.30
2022-11-24T18:33:56.118Z,11.30
2022-11-24T18:39:01.133Z,11.30
2022-11-24T18:44:07.569Z,11.20
2022-11-24T18:49:09.481Z,11.30
2022-11-24T18:54:11.279Z,11.30
2022-11-24T18:59:13.175Z,11.30
2022-11-24T19:04:15.309Z,11.10
2022-11-24T19:09:22.718Z,11.00
2022-11-24T19:14:24.547Z,11.00
2022-11-24T19:19:26.562Z,10.80
2022-11-24T19:24:30.183Z,10.60
2022-11-24T19:29:32.143Z,10.50
2022-11-24T19:34:34.342Z,10.50
2022-11-24T19:39:36.285Z,10.50
2022-11-24T19:44:38.163Z,10.60
2022-11-24T19:49:40.047Z,10.50
2022-11-24T19:54:41.857Z,10.40
2022-11-24T19:59:45.665Z,10.30
2022-11-24T20:04:47.531Z,10.30
2022-11-24T20:09:49.419Z,10.20
2022-11-24T20:14:51.291Z,10.20
2022-11-24T20:19:53.190Z,10.20
2022-11-24T20:24:55.050Z,10.20
2022-11-24T20:29:56.898Z,10.20
2022-11-24T20:34:58.891Z,10.20
2022-11-24T20:40:03.040Z,10.20
2022-11-24T20:45:05.133Z,10.10
2022-11-24T20:50:07.218Z,10.00
2022-11-24T20:55:09.524Z,10.00
2022-11-24T21:00:12.185Z,10.00
2022-11-24T21:05:14.080Z,10.00
2022-11-24T21:10:16.060Z,9.80
2022-11-24T21:15:17.866Z,9.90
2022-11-24T21:20:19.653Z,9.90
2022-11-24T21:25:21.586Z,9.90
2022-11-24T21:30:23.820Z,9.70
2022-11-24T21:35:25.662Z,9.70
2022-11-24T21:40:27.526Z,9.70
2022-11-24T21:45:29.696Z,9.60
2022-11-24T21:50:31.614Z,9.60
2022-11-24T21:55:33.518Z,9.50
2022-11-24T22:00:35.405Z,9.40
2022-11-24T22:05:37.300Z,9.40
2022-11-24T22:10:39.176Z,9.20
2022-11-24T22:15:41.120Z,9.20
2022-11-24T22:20:42.983Z,9.10
2022-11-24T22:25:44.819Z,9.20
2022-11-24T22:30:46.699Z,9.10
2022-11-24T22:36:01.885Z,9.00
2022-11-24T22:41:12.231Z,9.10
2022-11-24T22:46:16.738Z,9.10
2022-11-24T22:51:20.843Z,9.00
2022-11-24T22:56:24.234Z,9.00
2022-11-24T23:01:27.714Z,8.80
2022-11-24T23:06:31.389Z,8.80
2022-11-24T23:11:38.652Z,8.80
2022-11-24T23:16:41.042Z,8.70
2022-11-24T23:21:43.054Z,8.70
2022-11-24T23:26:45.023Z,8.80
2022-11-24T23:31:46.968Z,8.80
2022-11-24T23:36:48.820Z,8.80
2022-11-24T23:41:50.611Z,8.80
2022-11-24T23:46:52.376Z,8.90
2022-11-24T23:51:54.231Z,8.90
2022-11-24T23:56:56.073Z,8.90
